createdAt,value
2018-12-02T00:00:07.389Z,83465.00
2018-12-02T00:05:11.466Z,83465.00
2018-12-02T00:10:16.236Z,83467.00
2018-12-02T00:15:22.934Z,83471.00
2018-12-02T00:20:26.770Z,83472.00
2018-12-02T00:25:30.575Z,83462.00
2018-12-02T00:30:34.424Z,83457.00
2018-12-02T00:35:38.460Z,83450.00
2018-12-02T00:40:42.492Z,83450.00
2018-12-02T00:45:46.508Z,83445.00
2018-12-02T00:50:50.284Z,83450.00
2018-12-02T00:56:00.959Z,83456.00
2018-12-02T01:01:04.855Z,83459.00
2018-12-02T01:06:08.638Z,83467.00
2018-12-02T01:11:12.438Z,83476.00
2018-12-02T01:16:16.484Z,83475.00
2018-12-02T01:21:20.260Z,83475.00
2018-12-02T01:26:24.055Z,83476.00
2018-12-02T01:31:27.871Z,83477.00
2018-12-02T01:36:31.980Z,83479.00
2018-12-02T01:41:35.762Z,83473.00
2018-12-02T01:46:39.574Z,83470.00
2018-12-02T01:51:43.366Z,83476.00
2018-12-02T01:56:47.150Z,83479.00
2018-12-02T02:01:50.965Z,83487.00
2018-12-02T02:06:54.796Z,83487.00
2018-12-02T02:11:58.636Z,83483.00
2018-12-02T02:17:02.704Z,83490.00
2018-12-02T02:22:06.562Z,83496.00
2018-12-02T02:27:10.354Z,83496.00
2018-12-02T02:32:14.379Z,83494.00
2018-12-02T02:37:18.175Z,83496.00
2018-12-02T02:42:22.207Z,83504.00
2018-12-02T02:47:26.095Z,83500.00
2018-12-02T02:52:29.885Z,83499.00
2018-12-02T02:57:33.683Z,83475.00
2018-12-02T03:02:37.534Z,83466.00
2018-12-02T03:07:41.342Z,83450.00
2018-12-02T03:12:49.183Z,83424.00
2018-12-02T03:17:52.984Z,83421.00
2018-12-02T03:22:57.014Z,83427.00
2018-12-02T03:28:00.809Z,83425.00
2018-12-02T03:33:04.648Z,83419.00
2018-12-02T03:38:08.446Z,83406.00
2018-12-02T03:43:12.218Z,83403.00
2018-12-02T03:48:16.015Z,83394.00
2018-12-02T03:53:20.035Z,83395.00
2018-12-02T03:58:23.845Z,83391.00
2018-12-02T04:03:27.632Z,83397.00
2018-12-02T04:08:31.429Z,83398.00
2018-12-02T04:13:35.234Z,83392.00
2018-12-02T04:18:39.333Z,83388.00
2018-12-02T04:23:43.336Z,83386.00
2018-12-02T04:28:47.467Z,83391.00
2018-12-02T04:33:51.314Z,83394.00
2018-12-02T04:38:55.174Z,83403.00
2018-12-02T04:43:58.964Z,83395.00
2018-12-02T04:49:02.740Z,83405.00
2018-12-02T04:54:06.531Z,83408.00
2018-12-02T04:59:10.348Z,83414.00
2018-12-02T05:04:14.142Z,83420.00
2018-12-02T05:09:17.997Z,83419.00
2018-12-02T05:14:21.835Z,83420.00
2018-12-02T05:19:25.918Z,83420.00
2018-12-02T05:24:29.721Z,83425.00
2018-12-02T05:29:33.517Z,83424.00
2018-12-02T05:34:37.329Z,83424.00
2018-12-02T05:39:41.159Z,83428.00
2018-12-02T05:44:45.003Z,83426.00
2018-12-02T05:49:48.812Z,83431.00
2018-12-02T05:54:52.615Z,83434.00
2018-12-02T05:59:56.435Z,83432.00
2018-12-02T06:05:00.460Z,83437.00
2018-12-02T06:10:06.925Z,83437.00
2018-12-02T06:15:15.225Z,83440.00
2018-12-02T06:20:19.901Z,83441.00
2018-12-02T06:25:24.128Z,83444.00
2018-12-02T06:30:28.407Z,83447.00
2018-12-02T06:35:32.565Z,83447.00
2018-12-02T06:40:36.408Z,83451.00
2018-12-02T06:45:40.477Z,83458.00
2018-12-02T06:50:46.528Z,83471.00
2018-12-02T06:55:55.100Z,83479.00
2018-12-02T07:03:17.032Z,83480.00
2018-12-02T07:08:21.144Z,83475.00
2018-12-02T07:13:25.017Z,83479.00
2018-12-02T07:18:30.828Z,83478.00
2018-12-02T07:23:34.631Z,83472.00
2018-12-02T07:28:38.692Z,83482.00
2018-12-02T07:33:42.548Z,83480.00
2018-12-02T07:39:02.515Z,83486.00
2018-12-02T07:44:06.360Z,83487.00
2018-12-02T07:49:10.177Z,83489.00
2018-12-02T07:54:13.976Z,83490.00
2018-12-02T07:59:18.056Z,83487.00
2018-12-02T08:04:22.101Z,83500.00
2018-12-02T08:09:25.913Z,83503.00
2018-12-02T08:14:29.712Z,83508.00
2018-12-02T08:19:33.533Z,83510.00
2018-12-02T08:24:37.336Z,83518.00
2018-12-02T08:29:41.396Z,83521.00
2018-12-02T08:34:45.199Z,83528.00
2018-12-02T08:39:49.053Z,83532.00
2018-12-02T08:44:52.906Z,83534.00
2018-12-02T08:49:56.916Z,83535.00
2018-12-02T08:55:00.719Z,83544.00
2018-12-02T09:00:07.315Z,83545.00
2018-12-02T09:05:12.280Z,83548.00
2018-12-02T09:10:20.300Z,83553.00
2018-12-02T09:15:24.368Z,83552.00
2018-12-02T09:20:33.712Z,83551.00
2018-12-02T09:25:37.537Z,83554.00
2018-12-02T09:30:41.347Z,83562.00
2018-12-02T09:35:45.158Z,83575.00
2018-12-02T09:40:49.228Z,83585.00
2018-12-02T09:45:53.071Z,83590.00
2018-12-02T09:50:56.870Z,83603.00
2018-12-02T09:56:00.687Z,83619.00
2018-12-02T10:01:04.505Z,83640.00
2018-12-02T10:06:08.337Z,83652.00
2018-12-02T10:11:12.154Z,83662.00
2018-12-02T10:16:17.281Z,83668.00
2018-12-02T10:21:19.716Z,83677.00
2018-12-02T10:26:23.503Z,83681.00
2018-12-02T10:31:27.365Z,83689.00
2018-12-02T10:36:31.473Z,83702.00
2018-12-02T10:41:35.277Z,83723.00
2018-12-02T10:46:43.825Z,83740.00
2018-12-02T10:51:42.959Z,83736.00
2018-12-02T10:56:47.041Z,83737.00
2018-12-02T11:01:55.047Z,83740.00
2018-12-02T11:06:58.942Z,83738.00
2018-12-02T11:12:02.793Z,83751.00
2018-12-02T11:17:06.611Z,83761.00
2018-12-02T11:22:10.681Z,83772.00
2018-12-02T11:27:14.753Z,83800.00
2018-12-02T11:32:18.564Z,83828.00
2018-12-02T11:37:22.667Z,83837.00
2018-12-02T11:42:26.503Z,83856.00
2018-12-02T11:47:30.307Z,83869.00
2018-12-02T11:52:34.139Z,83882.00
2018-12-02T11:57:38.533Z,83893.00
2018-12-02T12:02:42.421Z,83887.00
2018-12-02T12:07:47.977Z,83887.00
2018-12-02T12:12:53.426Z,83899.00
2018-12-02T12:17:57.703Z,83916.00
2018-12-02T12:23:01.533Z,83926.00
2018-12-02T12:28:06.113Z,83945.00
2018-12-02T12:33:11.129Z,83960.00
2018-12-02T12:38:14.936Z,83966.00
2018-12-02T12:43:22.385Z,83963.00
2018-12-02T12:48:26.239Z,83964.00
2018-12-02T12:53:30.509Z,83971.00
2018-12-02T12:58:34.553Z,83983.00
2018-12-02T13:03:38.384Z,83988.00
2018-12-02T13:08:42.180Z,83986.00
2018-12-02T13:13:46.200Z,83984.00
2018-12-02T13:18:50.299Z,83985.00
2018-12-02T13:23:54.380Z,83980.00
2018-12-02T13:28:58.220Z,83985.00
2018-12-02T13:34:02.028Z,83991.00
2018-12-02T13:39:10.297Z,83984.00
2018-12-02T13:44:14.092Z,83974.00
2018-12-02T13:49:17.959Z,83972.00
2018-12-02T13:54:27.119Z,83970.00
2018-12-02T13:59:31.887Z,83969.00
2018-12-02T14:04:35.716Z,83965.00
2018-12-02T14:09:40.800Z,83965.00
2018-12-02T14:14:45.049Z,83957.00
2018-12-02T14:19:49.191Z,83957.00
2018-12-02T14:24:53.026Z,83965.00
2018-12-02T14:29:57.833Z,83998.00
2018-12-02T14:35:01.714Z,84007.00
2018-12-02T14:40:09.108Z,84022.00
2018-12-02T14:45:16.149Z,84029.00
2018-12-02T14:50:20.005Z,84026.00
2018-12-02T14:55:23.918Z,84015.00
2018-12-02T15:00:27.741Z,84013.00
2018-12-02T15:05:31.540Z,84003.00
2018-12-02T15:10:35.348Z,83999.00
2018-12-02T15:15:39.900Z,83991.00
2018-12-02T15:20:43.769Z,83983.00
2018-12-02T15:25:47.561Z,83984.00
2018-12-02T15:30:51.401Z,83971.00
2018-12-02T15:35:55.211Z,83958.00
2018-12-02T15:40:59.286Z,83946.00
2018-12-02T15:46:03.116Z,83939.00
2018-12-02T15:51:06.956Z,83929.00
2018-12-02T15:56:11.048Z,83928.00
2018-12-02T16:01:15.109Z,83921.00
2018-12-02T16:06:18.921Z,83918.00
2018-12-02T16:11:23.018Z,83917.00
2018-12-02T16:16:26.910Z,83918.00
2018-12-02T16:21:30.953Z,83917.00
2018-12-02T16:26:34.788Z,83924.00
2018-12-02T16:31:38.903Z,83922.00
2018-12-02T16:36:42.769Z,83919.00
2018-12-02T16:41:46.656Z,83920.00
2018-12-02T16:46:50.545Z,83920.00
2018-12-02T16:51:54.372Z,83918.00
2018-12-02T16:56:59.684Z,83916.00
2018-12-02T17:02:06.717Z,83918.00
2018-12-02T17:07:10.585Z,83924.00
2018-12-02T17:12:14.408Z,83928.00
2018-12-02T17:17:18.236Z,83934.00
2018-12-02T17:22:22.108Z,83933.00
2018-12-02T17:27:25.947Z,83937.00
2018-12-02T17:32:29.777Z,83939.00
2018-12-02T17:37:33.619Z,83937.00
2018-12-02T17:42:37.520Z,83936.00
2018-12-02T17:47:41.340Z,83943.00
2018-12-02T17:52:46.453Z,83942.00
2018-12-02T17:57:50.350Z,83953.00
2018-12-02T18:02:55.693Z,83958.00
2018-12-02T18:07:59.571Z,83949.00
2018-12-02T18:13:03.407Z,83949.00
2018-12-02T18:18:07.864Z,83952.00
2018-12-02T18:23:11.960Z,83949.00
2018-12-02T18:28:16.017Z,83952.00
2018-12-02T18:33:19.837Z,83957.00
2018-12-02T18:38:25.756Z,83959.00
2018-12-02T18:43:29.850Z,83966.00
2018-12-02T18:48:33.912Z,83972.00
2018-12-02T18:53:38.023Z,83966.00
2018-12-02T18:58:41.866Z,83963.00
2018-12-02T19:03:45.706Z,83960.00
2018-12-02T19:08:49.937Z,83958.00
2018-12-02T19:13:53.748Z,83953.00
2018-12-02T19:18:57.793Z,83952.00
2018-12-02T19:29:02.408Z,83944.00
2018-12-02T19:34:07.196Z,83942.00
2018-12-02T19:39:11.617Z,83940.00
2018-12-02T19:44:15.688Z,83943.00
2018-12-02T19:49:19.639Z,83947.00
2018-12-02T19:54:23.480Z,83942.00
2018-12-02T19:59:27.613Z,83937.00
2018-12-02T20:04:32.604Z,83935.00
2018-12-02T20:09:36.495Z,83928.00
2018-12-02T20:14:40.362Z,83921.00
2018-12-02T20:19:49.917Z,83918.00
2018-12-02T20:24:53.748Z,83915.00
2018-12-02T20:29:57.858Z,83916.00
2018-12-02T20:35:01.684Z,83914.00
2018-12-02T20:40:10.296Z,83913.00
2018-12-02T20:45:15.832Z,83911.00
2018-12-02T20:50:19.716Z,83912.00
2018-12-02T20:55:25.842Z,83913.00
2018-12-02T21:00:29.659Z,83914.00
2018-12-02T21:05:36.338Z,83905.00
2018-12-02T21:10:40.143Z,83908.00
2018-12-02T21:15:44.341Z,83913.00
2018-12-02T21:20:48.384Z,83915.00
2018-12-02T21:25:52.486Z,83920.00
2018-12-02T21:30:56.298Z,83921.00
2018-12-02T21:36:00.143Z,83933.00
2018-12-02T21:41:04.192Z,83936.00
2018-12-02T21:46:14.798Z,83938.00
2018-12-02T21:51:18.619Z,83936.00
2018-12-02T21:56:22.979Z,83942.00
2018-12-02T22:01:26.856Z,83930.00
2018-12-02T22:06:30.657Z,83915.00
2018-12-02T22:11:34.492Z,83909.00
2018-12-02T22:16:38.537Z,83903.00
2018-12-02T22:21:42.596Z,83899.00
2018-12-02T22:26:46.646Z,83891.00
2018-12-02T22:31:50.447Z,83879.00
2018-12-02T22:36:54.255Z,83869.00
2018-12-02T22:41:58.076Z,83864.00
2018-12-02T22:47:02.635Z,83859.00
2018-12-02T22:52:06.437Z,83858.00
2018-12-02T22:57:10.271Z,83857.00
2018-12-02T23:02:16.743Z,83849.00
2018-12-02T23:07:20.560Z,83842.00
2018-12-02T23:12:24.447Z,83845.00
2018-12-02T23:17:28.245Z,83850.00
2018-12-02T23:22:32.128Z,83846.00
2018-12-02T23:27:35.988Z,83843.00
2018-12-02T23:32:40.059Z,83840.00
2018-12-02T23:37:44.088Z,83842.00
2018-12-02T23:42:47.935Z,83842.00
2018-12-02T23:47:51.763Z,83840.00
2018-12-02T23:52:55.863Z,83841.00
2018-12-02T23:57:59.907Z,83839.00
